Time;durP1;ratioP1;P1;durP2;ratioP2;P2;SDS_P1;SDS_P2;PMS_P1;PMS_P2;Temp;Humidity;BMP_temperature;BMP_pressure;BME280_temperature;BME280_humidity;BME280_pressure;Samples;Min_cycle;Max_cycle;Signal;HPM_P1;HPM_P2
2021/06/02 00:02:05;;;;;;;9.40;6.38;;;15.30;82.00;;;;;;5039223;28;20056;-60
2021/06/02 00:04:34;;;;;;;7.13;6.43;;;15.30;81.80;;;;;;5059193;28;20466;-61
2021/06/02 00:07:09;;;;;;;8.20;6.28;;;15.20;81.80;;;;;;5060171;28;20049;-60
2021/06/02 00:09:37;;;;;;;8.65;6.35;;;15.30;81.40;;;;;;5056317;28;20179;-60
2021/06/02 00:12:08;;;;;;;9.77;6.50;;;15.20;81.40;;;;;;5061863;28;20041;-60
2021/06/02 00:14:40;;;;;;;8.65;6.40;;;15.20;81.40;;;;;;5053877;28;20060;-60
2021/06/02 00:17:08;;;;;;;8.07;6.30;;;15.20;81.70;;;;;;5053864;28;20045;-61
2021/06/02 00:19:38;;;;;;;8.15;6.43;;;15.20;81.60;;;;;;5063251;28;20059;-59
2021/06/02 00:22:09;;;;;;;8.55;6.45;;;15.10;81.70;;;;;;5059897;28;20135;-60
2021/06/02 00:24:41;;;;;;;8.65;6.00;;;15.10;81.70;;;;;;5057671;28;20103;-60
2021/06/02 00:27:13;;;;;;;6.38;5.50;;;15.10;81.80;;;;;;5061966;28;20166;-60
2021/06/02 00:29:45;;;;;;;8.45;6.15;;;15.00;82.60;;;;;;5055330;28;20076;-61
2021/06/02 00:32:15;;;;;;;11.65;6.43;;;15.00;81.90;;;;;;5058211;28;20120;-61
2021/06/02 00:34:44;;;;;;;6.88;5.60;;;15.00;82.20;;;;;;5061677;28;20047;-61
2021/06/02 00:37:11;;;;;;;8.50;6.18;;;15.00;82.80;;;;;;5057430;28;20045;-60
2021/06/02 00:39:44;;;;;;;9.32;6.82;;;14.90;82.70;;;;;;5058500;28;20049;-61
2021/06/02 00:42:16;;;;;;;10.07;7.05;;;14.80;83.20;;;;;;5053083;28;20067;-60
2021/06/02 00:44:42;;;;;;;9.20;6.65;;;14.80;83.50;;;;;;5052204;28;20460;-60
2021/06/02 00:47:08;;;;;;;9.25;6.68;;;14.80;83.70;;;;;;5054975;28;20055;-60
2021/06/02 00:49:35;;;;;;;10.32;7.28;;;14.70;84.20;;;;;;5055872;28;20055;-60
2021/06/02 00:52:08;;;;;;;9.10;7.13;;;14.70;84.30;;;;;;5054278;28;20052;-61
2021/06/02 00:54:37;;;;;;;11.05;7.85;;;14.60;84.80;;;;;;5049093;28;20458;-60
2021/06/02 00:57:14;;;;;;;9.82;7.95;;;14.50;84.80;;;;;;5052614;28;20096;-60
2021/06/02 00:59:42;;;;;;;10.02;7.63;;;14.50;84.90;;;;;;5056176;28;20043;-60
2021/06/02 01:02:19;;;;;;;11.57;7.97;;;14.40;85.10;;;;;;5050711;28;20523;-60
2021/06/02 01:04:48;;;;;;;9.45;7.80;;;14.40;85.50;;;;;;5062360;28;20099;-60
2021/06/02 01:07:15;;;;;;;10.75;8.70;;;14.40;85.80;;;;;;5062093;28;20048;-60
2021/06/02 01:09:55;;;;;;;9.63;8.32;;;14.40;85.80;;;;;;5061128;28;20048;-59
2021/06/02 01:12:29;;;;;;;9.35;7.88;;;14.30;86.20;;;;;;5050649;28;20273;-60
2021/06/02 01:14:56;;;;;;;11.00;8.20;;;14.20;86.80;;;;;;5053186;28;20041;-61
2021/06/02 01:17:27;;;;;;;10.55;7.95;;;14.10;86.70;;;;;;5057675;28;20052;-60
2021/06/02 01:20:01;;;;;;;11.02;8.65;;;14.10;87.10;;;;;;5067540;28;20044;-61
2021/06/02 01:22:33;;;;;;;12.95;8.60;;;14.10;87.30;;;;;;5057527;28;20077;-61
2021/06/02 01:25:09;;;;;;;;;;;14.00;87.30;;;;;;5036057;28;20041;-60
2021/06/02 01:27:36;;;;;;;12.32;9.38;;;14.00;89.70;;;;;;5038659;28;19924;-61
2021/06/02 01:30:11;;;;;;;9.98;8.98;;;13.90;87.50;;;;;;5051732;28;20512;-60
2021/06/02 01:32:44;;;;;;;13.35;9.00;;;13.90;88.20;;;;;;5063481;28;20482;-60
2021/06/02 01:35:31;;;;;;;10.80;9.70;;;13.80;88.80;;;;;;5057640;28;20048;-60
2021/06/02 01:38:34;;;;;;;13.45;9.23;;;13.80;89.30;;;;;;5051762;28;20461;-60
2021/06/02 01:41:06;;;;;;;13.98;9.65;;;13.70;89.30;;;;;;5050932;28;20059;-59
2021/06/02 01:44:13;;;;;;;14.55;10.27;;;13.70;89.00;;;;;;5057857;28;20056;-59
2021/06/02 01:47:18;;;;;;;9.60;8.52;;;13.60;90.10;;;;;;5049846;28;20041;-60
2021/06/02 01:50:15;;;;;;;9.70;8.65;;;13.50;90.30;;;;;;5058450;28;20037;-60
2021/06/02 01:53:03;;;;;;;10.30;8.43;;;13.50;90.10;;;;;;5059697;28;20473;-60
2021/06/02 01:55:32;;;;;;;11.07;9.38;;;13.40;90.10;;;;;;5055442;28;20059;-60
2021/06/02 01:58:36;;;;;;;10.93;8.07;;;13.40;90.10;;;;;;5053569;28;20044;-60
2021/06/02 02:01:26;;;;;;;11.32;8.60;;;13.30;90.40;;;;;;5063377;28;20155;-59
2021/06/02 02:04:37;;;;;;;13.13;8.40;;;13.30;90.20;;;;;;5053316;28;20492;-59
2021/06/02 02:07:33;;;;;;;10.38;8.90;;;13.30;90.30;;;;;;5069870;28;20052;-59
2021/06/02 02:10:31;;;;;;;10.35;7.75;;;13.20;90.30;;;;;;5060846;28;20048;-59
2021/06/02 02:12:57;;;;;;;10.82;8.13;;;13.20;90.20;;;;;;5066501;28;20587;-60
2021/06/02 02:15:33;;;;;;;9.98;8.95;;;13.20;90.00;;;;;;5055617;28;20055;-60
2021/06/02 02:18:14;;;;;;;12.90;8.45;;;13.20;90.10;;;;;;5051960;28;20049;-60
2021/06/02 02:20:49;;;;;;;10.53;7.93;;;13.10;90.30;;;;;;5063711;28;20052;-60
2021/06/02 02:23:35;;;;;;;13.48;8.43;;;13.10;90.20;;;;;;5055390;28;20048;-60
2021/06/02 02:26:20;;;;;;;9.30;8.15;;;13.10;90.30;;;;;;5059051;28;20055;-60
2021/06/02 02:29:26;;;;;;;11.45;8.50;;;13.00;90.40;;;;;;5056590;28;20052;-60
2021/06/02 02:32:30;;;;;;;11.02;8.50;;;13.00;90.70;;;;;;5054332;28;20033;-58
2021/06/02 02:35:08;;;;;;;14.20;9.25;;;13.00;90.60;;;;;;5055238;28;20045;-60
2021/06/02 02:37:50;;;;;;;11.05;8.30;;;12.90;90.30;;;;;;5050009;28;20057;-60
2021/06/02 02:40:25;;;;;;;13.38;8.18;;;12.90;90.60;;;;;;5046952;28;20080;-60
2021/06/02 02:43:11;;;;;;;9.60;8.07;;;12.80;90.60;;;;;;5039254;28;20184;-59
2021/06/02 02:46:05;;;;;;;12.00;9.05;;;12.80;90.80;;;;;;5045255;28;20045;-60
2021/06/02 02:48:47;;;;;;;11.82;8.10;;;12.80;90.70;;;;;;5043241;28;20059;-60
2021/06/02 02:51:26;;;;;;;12.65;8.85;;;12.80;90.70;;;;;;5043658;28;20421;-60
2021/06/02 02:54:03;;;;;;;12.00;8.45;;;12.70;90.90;;;;;;5048227;28;20049;-61
2021/06/02 02:56:40;;;;;;;11.43;8.68;;;12.70;91.20;;;;;;5038786;28;20124;-61
2021/06/02 02:59:28;;;;;;;12.43;8.50;;;12.70;90.90;;;;;;5042153;28;20044;-60
2021/06/02 03:02:03;;;;;;;13.00;7.78;;;12.70;91.10;;;;;;5044200;28;20060;-60
2021/06/02 03:04:41;;;;;;;11.18;8.35;;;12.60;91.00;;;;;;5036704;28;20045;-61
2021/06/02 03:07:11;;;;;;;9.00;7.65;;;12.60;91.00;;;;;;5038366;28;20457;-61
2021/06/02 03:09:49;;;;;;;10.13;8.05;;;12.60;91.00;;;;;;5043122;28;20441;-61
2021/06/02 03:12:29;;;;;;;11.02;8.00;;;12.60;91.00;;;;;;5037829;28;20047;-61
2021/06/02 03:15:13;;;;;;;10.25;8.43;;;12.50;91.10;;;;;;5035740;28;20744;-61
2021/06/02 03:17:50;;;;;;;10.77;9.25;;;12.50;91.30;;;;;;5040869;28;20060;-61
2021/06/02 03:20:32;;;;;;;11.23;8.30;;;12.50;91.10;;;;;;5034599;28;20122;-61
2021/06/02 03:23:10;;;;;;;12.63;8.25;;;12.50;91.30;;;;;;5042755;28;20045;-61
2021/06/02 03:26:00;;;;;;;11.00;7.72;;;12.50;91.20;;;;;;5040175;28;20052;-61
2021/06/02 03:29:02;;;;;;;11.57;8.10;;;12.50;91.40;;;;;;5033948;28;20086;-62
2021/06/02 03:31:54;;;;;;;10.30;7.40;;;12.50;91.30;;;;;;5047767;28;20539;-61
2021/06/02 03:34:57;;;;;;;11.15;7.82;;;12.50;91.30;;;;;;5045304;28;20049;-61
2021/06/02 03:37:50;;;;;;;9.48;7.43;;;12.60;91.20;;;;;;5036546;28;20057;-60
2021/06/02 03:40:33;;;;;;;;;;;12.60;91.20;;;;;;5032332;28;20115;-60
2021/06/02 03:43:18;;;;;;;;;;;12.60;91.50;;;;;;5028797;28;19925;-61
2021/06/02 03:45:54;;;;;;;;;;;12.70;91.30;;;;;;5027477;28;19931;-62
2021/06/02 03:48:41;;;;;;;;;;;12.60;91.70;;;;;;5029304;28;19967;-61
2021/06/02 03:51:17;;;;;;;;;;;12.70;91.50;;;;;;4990048;28;20645;-61
2021/06/02 03:53:46;;;;;;;;;;;12.80;91.60;;;;;;5003092;28;19926;-62
2021/06/02 03:56:12;;;;;;;;;;;12.80;91.50;;;;;;5003730;28;20361;-61
2021/06/02 03:58:57;;;;;;;;;;;12.90;91.20;;;;;;5003643;28;20374;-61
2021/06/02 04:01:29;;;;;;;;;;;12.90;91.20;;;;;;5001586;28;20404;-61
2021/06/02 04:04:05;;;;;;;;;;;12.90;91.40;;;;;;5000675;28;20020;-61
2021/06/02 04:06:34;;;;;;;;;;;13.00;91.50;;;;;;5006102;28;20007;-61
2021/06/02 04:09:08;;;;;;;;;;;13.00;91.50;;;;;;5006289;28;20529;-60
2021/06/02 04:11:37;;;;;;;;;;;13.00;91.40;;;;;;5005968;28;19929;-60
2021/06/02 04:14:07;;;;;;;;;;;13.10;91.40;;;;;;5004593;28;19967;-61
2021/06/02 04:16:40;;;;;;;;;;;13.20;91.40;;;;;;5005507;28;19925;-61
2021/06/02 06:12:00;;;;;;;;;;;19.00;64.90;;;;;;5005136;28;20011;-70
2021/06/02 06:14:43;;;;;;;;;;;19.00;63.90;;;;;;5010752;28;19929;-69
2021/06/02 06:17:27;;;;;;;;;;;19.00;65.20;;;;;;5007781;28;19932;-68
2021/06/02 06:19:57;;;;;;;;;;;19.20;65.70;;;;;;5000331;28;20499;-71
2021/06/02 06:22:45;;;;;;;;;;;19.30;64.70;;;;;;5012714;28;19957;-69
2021/06/02 06:25:24;;;;;;;;;;;19.10;62.60;;;;;;5003448;28;19925;-71
2021/06/02 06:27:55;;;;;;;;;;;18.80;63.90;;;;;;5013912;28;19941;-71
2021/06/02 06:30:33;;;;;;;;;;;18.60;65.60;;;;;;4996064;28;19925;-72
2021/06/02 06:33:01;;;;;;;;;;;18.40;66.30;;;;;;5014000;28;19925;-71
2021/06/02 06:35:37;;;;;;;;;;;18.20;67.30;;;;;;5012239;28;19936;-72
2021/06/02 06:38:06;;;;;;;;;;;18.10;67.00;;;;;;5013038;28;19932;-67
2021/06/02 06:40:33;;;;;;;;;;;17.90;68.60;;;;;;5004860;28;20007;-69
2021/06/02 06:43:09;;;;;;;;;;;17.80;69.80;;;;;;4989342;28;19933;-68
2021/06/02 06:45:39;;;;;;;;;;;17.90;69.30;;;;;;5009466;28;19963;-70
2021/06/02 06:48:21;;;;;;;;;;;17.80;70.10;;;;;;5012114;28;19937;-69
2021/06/02 06:50:49;;;;;;;;;;;17.80;71.10;;;;;;5014982;28;19980;-64
2021/06/02 06:53:16;;;;;;;;;;;17.90;69.20;;;;;;5009151;28;20366;-73
2021/06/02 06:55:45;;;;;;;;;;;18.10;68.80;;;;;;5006623;28;19971;-64
2021/06/02 06:58:17;;;;;;;;;;;18.10;68.40;;;;;;5002417;28;20398;-64
2021/06/02 07:00:46;;;;;;;;;;;18.40;68.10;;;;;;5009283;28;19932;-61
2021/06/02 07:03:14;;;;;;;;;;;18.50;67.30;;;;;;5009002;28;19952;-60
2021/06/02 07:05:41;;;;;;;;;;;18.40;66.50;;;;;;5008257;28;19925;-57
2021/06/02 07:08:10;;;;;;;;;;;18.60;66.70;;;;;;5007793;28;19936;-60
2021/06/02 07:10:39;;;;;;;;;;;18.90;67.10;;;;;;5009662;28;19925;-60
2021/06/02 07:13:09;;;;;;;;;;;19.00;65.60;;;;;;5005946;28;19921;-60
2021/06/02 07:15:38;;;;;;;;;;;19.10;63.90;;;;;;5012666;28;19939;-60
2021/06/02 07:18:05;;;;;;;;;;;19.30;64.20;;;;;;4989082;28;19932;-61
2021/06/02 07:20:37;;;;;;;;;;;19.30;63.00;;;;;;5008723;28;19926;-60
2021/06/02 07:23:03;;;;;;;;;;;19.30;64.10;;;;;;4989172;28;19934;-61
2021/06/02 07:25:35;;;;;;;;;;;19.50;61.80;;;;;;5008213;28;19944;-60
2021/06/02 07:28:03;;;;;;;;;;;19.40;61.80;;;;;;5010331;28;19925;-60
2021/06/02 07:30:32;;;;;;;;;;;19.50;62.70;;;;;;5007647;28;19921;-61
2021/06/02 07:32:58;;;;;;;;;;;19.60;61.50;;;;;;5004002;28;19929;-62
2021/06/02 07:35:28;;;;;;;;;;;19.70;61.40;;;;;;5005456;28;19925;-61
2021/06/02 07:37:54;;;;;;;;;;;19.90;61.40;;;;;;5005314;28;20004;-61
2021/06/02 07:40:24;;;;;;;;;;;20.00;63.20;;;;;;5002107;28;19925;-60
2021/06/02 07:42:53;;;;;;;;;;;20.20;62.40;;;;;;5010972;28;20381;-60
2021/06/02 07:45:24;;;;;;;;;;;20.30;60.30;;;;;;5006067;28;20382;-60
2021/06/02 07:47:50;;;;;;;;;;;21.00;59.00;;;;;;4999317;28;19925;-60
2021/06/02 07:50:19;;;;;;;;;;;21.70;59.00;;;;;;5002086;28;19948;-60
2021/06/02 07:52:51;;;;;;;;;;;22.20;56.30;;;;;;5006291;28;19929;-58
2021/06/02 07:55:22;;;;;;;;;;;22.70;51.90;;;;;;5013269;28;19955;-60
2021/06/02 07:57:51;;;;;;;;;;;22.80;52.90;;;;;;5005566;28;19925;-60
2021/06/02 08:00:17;;;;;;;;;;;23.10;52.90;;;;;;5008575;28;19929;-60
2021/06/02 08:02:46;;;;;;;;;;;23.00;51.30;;;;;;5008722;28;19983;-60
2021/06/02 08:05:20;;;;;;;;;;;22.90;50.90;;;;;;5008568;28;19932;-59
2021/06/02 08:07:47;;;;;;;;;;;23.10;51.00;;;;;;5007001;28;20278;-60
2021/06/02 08:10:14;;;;;;;;;;;22.70;50.20;;;;;;5008235;28;19925;-60
2021/06/02 08:12:44;;;;;;;;;;;23.00;51.40;;;;;;5008613;28;19929;-60
2021/06/02 08:15:14;;;;;;;;;;;23.40;50.50;;;;;;5008060;28;19929;-59
2021/06/02 08:17:44;;;;;;;;;;;23.30;50.40;;;;;;5005475;28;19937;-59
2021/06/02 08:20:11;;;;;;;;;;;23.20;49.60;;;;;;5005786;28;20389;-60
2021/06/02 08:22:37;;;;;;;;;;;23.70;50.50;;;;;;5006197;28;19930;-61
2021/06/02 08:25:05;;;;;;;;;;;24.10;50.70;;;;;;5008386;28;19932;-62
2021/06/02 08:27:34;;;;;;;;;;;24.40;49.10;;;;;;5007928;28;20031;-61
2021/06/02 08:30:01;;;;;;;;;;;24.60;48.10;;;;;;5005932;28;19937;-60
2021/06/02 08:32:27;;;;;;;;;;;24.80;48.00;;;;;;5003785;28;19999;-60
2021/06/02 08:34:54;;;;;;;;;;;24.90;45.10;;;;;;5009302;28;19932;-61
2021/06/02 08:37:20;;;;;;;;;;;25.10;43.80;;;;;;4991070;28;20274;-60
2021/06/02 08:39:46;;;;;;;;;;;25.00;41.30;;;;;;4998551;28;19926;-61
2021/06/02 08:42:16;;;;;;;;;;;25.30;43.80;;;;;;5007032;28;19964;-60
2021/06/02 08:44:42;;;;;;;;;;;25.30;39.50;;;;;;5009160;28;19925;-60
2021/06/02 08:47:08;;;;;;;;;;;25.50;39.50;;;;;;5012441;28;19925;-61
2021/06/02 08:49:35;;;;;;;;;;;25.50;40.00;;;;;;5008158;28;20303;-61
2021/06/02 08:52:06;;;;;;;;;;;25.70;38.40;;;;;;4989677;28;19932;-61
2021/06/02 08:54:34;;;;;;;;;;;26.10;35.70;;;;;;5007499;28;19969;-61
2021/06/02 08:57:03;;;;;;;;;;;26.30;39.00;;;;;;5004676;28;19980;-60
2021/06/02 08:59:29;;;;;;;;;;;26.00;38.10;;;;;;5007581;28;19980;-60
2021/06/02 09:01:58;;;;;;;;;;;26.10;38.10;;;;;;4999692;28;19925;-60
2021/06/02 09:04:24;;;;;;;;;;;26.00;38.00;;;;;;5007612;28;20028;-60
2021/06/02 09:06:53;;;;;;;;;;;26.10;37.60;;;;;;5010991;28;19922;-59
2021/06/02 09:09:23;;;;;;;;;;;25.90;37.30;;;;;;5008007;28;19932;-60
2021/06/02 09:11:50;;;;;;;;;;;25.70;38.10;;;;;;4999239;28;20009;-59
2021/06/02 09:14:24;;;;;;;;;;;25.60;39.40;;;;;;4986468;28;20059;-60
2021/06/02 09:16:54;;;;;;;;;;;25.70;38.80;;;;;;4970516;28;20024;-61
2021/06/02 09:19:40;;;;;;;;;;;25.80;39.00;;;;;;4987930;28;20385;-60
2021/06/02 09:22:10;;;;;;;;;;;26.10;37.70;;;;;;4986158;28;19925;-62
2021/06/02 09:24:50;;;;;;;;;;;26.70;39.40;;;;;;4990206;28;19930;-61
2021/06/02 09:27:37;;;;;;;;;;;27.30;38.30;;;;;;4992633;28;19989;-62
2021/06/02 09:30:09;;;;;;;;;;;27.30;37.80;;;;;;4986929;28;20017;-58
2021/06/02 09:32:46;;;;;;;;;;;27.50;36.00;;;;;;4987338;28;19922;-59
2021/06/02 09:35:13;;;;;;;;;;;27.70;36.00;;;;;;4972353;28;19972;-60
2021/06/02 09:37:50;;;;;;;;;;;27.40;32.90;;;;;;4988537;28;20021;-60
2021/06/02 09:40:20;;;;;;;;;;;27.70;34.00;;;;;;4985874;28;20302;-60
2021/06/02 09:42:47;;;;;;;;;;;27.60;34.30;;;;;;4969314;28;19926;-60
2021/06/02 09:45:14;;;;;;;;;;;27.80;35.00;;;;;;4979432;28;19926;-59
2021/06/02 09:47:44;;;;;;;;;;;28.30;35.40;;;;;;4981689;28;19984;-59
2021/06/02 09:50:11;;;;;;;;;;;28.30;34.90;;;;;;4985146;28;19921;-58
2021/06/02 09:52:48;;;;;;;;;;;28.40;35.40;;;;;;4984787;28;20000;-57
2021/06/02 09:55:15;;;;;;;;;;;28.40;35.10;;;;;;4962462;28;20375;-59
2021/06/02 09:57:41;;;;;;;;;;;28.50;35.60;;;;;;4986522;28;19949;-60
2021/06/02 10:00:08;;;;;;;;;;;28.50;34.00;;;;;;4987660;28;19952;-62
2021/06/02 10:02:44;;;;;;;;;;;28.70;33.50;;;;;;4988092;28;20678;-60
2021/06/02 10:05:12;;;;;;;;;;;28.70;33.50;;;;;;4988575;28;20282;-59
2021/06/02 10:07:43;;;;;;;;;;;28.10;32.90;;;;;;4988028;28;19940;-60
2021/06/02 10:10:09;;;;;;;;;;;28.50;34.00;;;;;;4986650;28;19925;-59
2021/06/02 10:12:36;;;;;;;;;;;28.80;34.50;;;;;;4988253;28;19922;-59
2021/06/02 10:15:05;;;;;;;;;;;28.90;34.60;;;;;;4981853;28;19934;-58
2021/06/02 10:17:36;;;;;;;;;;;29.10;34.20;;;;;;4983279;28;19988;-58
2021/06/02 10:20:11;;;;;;;;;;;29.60;32.90;;;;;;4983098;28;19925;-58
2021/06/02 10:22:39;;;;;;;;;;;29.80;33.30;;;;;;4986145;28;19965;-58
2021/06/02 10:25:07;;;;;;;;;;;29.80;32.40;;;;;;4973674;28;19932;-58
2021/06/02 10:27:33;;;;;;;;;;;29.50;31.50;;;;;;4981587;28;20046;-58
2021/06/02 10:30:02;;;;;;;;;;;29.50;31.90;;;;;;4986647;28;20065;-58
2021/06/02 10:32:29;;;;;;;;;;;29.40;31.60;;;;;;4984179;28;19929;-59
2021/06/02 10:34:55;;;;;;;;;;;29.50;31.30;;;;;;4981941;28;19926;-59
2021/06/02 10:37:23;;;;;;;;;;;29.10;32.40;;;;;;4983753;28;19957;-58
2021/06/02 10:39:56;;;;;;;;;;;29.20;33.00;;;;;;4978088;28;20366;-59
2021/06/02 10:42:28;;;;;;;;;;;29.30;33.30;;;;;;4981896;28;19996;-58
2021/06/02 10:44:59;;;;;;;;;;;29.20;32.10;;;;;;4985236;28;19925;-59
2021/06/02 10:47:26;;;;;;;;;;;29.10;33.60;;;;;;4985961;28;19925;-58
2021/06/02 10:49:53;;;;;;;;;;;28.70;33.50;;;;;;4987798;28;19988;-59
2021/06/02 10:52:34;;;;;;;;;;;29.00;35.20;;;;;;4985371;28;19996;-59
2021/06/02 10:55:32;;;;;;;;;;;29.30;34.50;;;;;;4983485;28;20294;-58
2021/06/02 10:58:16;;;;;;;;;;;29.30;33.40;;;;;;4938229;28;20022;-60
2021/06/02 11:00:43;;;;;;;;;;;28.80;33.70;;;;;;4942573;28;19937;-59
2021/06/02 11:03:28;;;;;;;;;;;28.80;33.40;;;;;;4940608;28;19933;-58
2021/06/02 11:05:58;;;;;;;;;;;28.90;33.70;;;;;;4944639;29;19926;-61
2021/06/02 11:08:42;;;;;;;;;;;29.40;33.60;;;;;;4952027;28;19929;-59
2021/06/02 11:11:31;;;;;;;;;;;29.80;33.50;;;;;;4955809;28;19934;-58
2021/06/02 11:16:45;;;;;;;;;;;29.70;33.80;;;;;;4971306;28;20026;-59
2021/06/02 11:19:15;;;;;;;;;;;29.80;34.20;;;;;;4948986;28;19978;-59
2021/06/02 11:21:54;;;;;;;;;;;29.80;33.00;;;;;;4948561;29;20007;-59
2021/06/02 11:24:32;;;;;;;;;;;29.80;34.50;;;;;;4966935;28;19962;-58
2021/06/02 11:27:13;;;;;;;;;;;29.50;33.70;;;;;;4967895;28;20602;-58
2021/06/02 11:29:49;;;;;;;;;;;29.50;35.60;;;;;;4963323;28;19957;-58
2021/06/02 11:32:18;;;;;;;;;;;29.50;34.30;;;;;;4962244;28;19929;-58
2021/06/02 11:34:46;;;;;;;;;;;29.50;33.80;;;;;;4981030;28;19929;-59
2021/06/02 11:37:15;;;;;;;;;;;30.10;36.80;;;;;;4970958;28;19930;-59
2021/06/02 11:39:44;;;;;;;;;;;30.20;34.00;;;;;;4988296;28;19932;-59
2021/06/02 11:42:30;;;;;;;;;;;29.70;34.80;;;;;;4986372;28;19926;-58
2021/06/02 11:44:57;;;;;;;;;;;29.60;34.10;;;;;;4991552;28;19937;-58
2021/06/02 11:47:23;;;;;;;;;;;29.40;34.30;;;;;;4978200;28;19921;-58
2021/06/02 11:50:00;;;;;;;;;;;29.30;34.50;;;;;;4984104;28;19930;-58
2021/06/02 11:52:28;;;;;;;;;;;29.10;36.30;;;;;;4985841;28;20405;-59
2021/06/02 11:54:58;;;;;;;;;;;29.20;35.90;;;;;;4985086;28;20601;-58
2021/06/02 11:57:25;;;;;;;;;;;29.20;36.20;;;;;;4988631;28;19925;-58
2021/06/02 11:59:51;;;;;;;;;;;29.40;34.50;;;;;;4985898;28;19925;-59
2021/06/02 12:02:18;;;;;;;;;;;29.40;35.80;;;;;;4971712;28;19941;-59
2021/06/02 12:04:44;;;;;;;;;;;29.60;34.70;;;;;;4984883;28;19964;-58
2021/06/02 12:07:23;;;;;;;;;;;29.40;34.90;;;;;;4988736;28;19932;-58
2021/06/02 12:09:50;;;;;;;;;;;29.40;36.40;;;;;;4988191;28;19925;-58
2021/06/02 12:12:19;;;;;;;;;;;29.80;36.70;;;;;;4995183;28;19926;-60
2021/06/02 12:14:55;;;;;;;;;;;29.80;35.30;;;;;;5001046;28;20452;-59
2021/06/02 12:17:28;;;;;;;;;;;29.80;36.80;;;;;;4997254;28;19937;-59
2021/06/02 12:19:56;;;;;;;;;;;30.30;36.50;;;;;;4971492;28;19926;-58
2021/06/02 12:22:28;;;;;;;;;;;30.00;34.50;;;;;;4993775;28;20337;-59
2021/06/02 12:25:09;;;;;;;;;;;29.80;34.70;;;;;;4996038;28;19948;-60
2021/06/02 12:27:38;;;;;;;;;;;30.00;35.40;;;;;;4996208;28;19928;-59
2021/06/02 12:30:06;;;;;;;;;;;30.30;34.60;;;;;;5002866;28;19925;-59
2021/06/02 12:32:51;;;;;;;;;;;29.80;34.50;;;;;;4997593;28;19926;-59
2021/06/02 12:35:36;;;;;;;;;;;29.90;34.70;;;;;;4993416;28;19971;-59
2021/06/02 12:38:13;;;;;;;;;;;29.50;35.20;;;;;;4998029;28;19925;-58
2021/06/02 12:40:42;;;;;;;;;;;29.60;36.90;;;;;;4993668;28;19925;-59
2021/06/02 12:43:40;;;;;;;;;;;29.60;35.90;;;;;;4995443;28;20385;-54
2021/06/02 12:46:10;;;;;;;;;;;29.70;34.60;;;;;;4997492;28;19929;-58
2021/06/02 12:48:44;;;;;;;;;;;29.70;35.10;;;;;;4996283;28;19926;-54
2021/06/02 12:51:14;;;;;;;;;;;29.80;35.60;;;;;;4989257;28;20019;-58
2021/06/02 12:53:41;;;;;;;;;;;30.10;35.00;;;;;;4996249;28;19926;-60
2021/06/02 12:56:08;;;;;;;;;;;30.00;34.70;;;;;;4994261;28;19940;-59
2021/06/02 12:58:37;;;;;;;;;;;29.80;35.10;;;;;;4991100;28;19932;-58
2021/06/02 13:01:07;;;;;;;;;;;29.80;35.70;;;;;;5001336;28;19925;-58
2021/06/02 13:03:34;;;;;;;;;;;30.00;35.00;;;;;;4999198;28;19933;-60
2021/06/02 13:06:03;;;;;;;;;;;30.60;34.90;;;;;;4997597;28;19961;-59
2021/06/02 13:08:41;;;;;;;;;;;31.20;35.20;;;;;;4997480;28;19932;-59
2021/06/02 13:11:11;;;;;;;;;;;31.20;35.20;;;;;;4996000;28;20357;-58
2021/06/02 13:13:37;;;;;;;;;;;31.50;34.60;;;;;;4986875;28;19957;-58
2021/06/02 13:16:06;;;;;;;;;;;31.20;32.60;;;;;;4984413;28;19925;-58
2021/06/02 13:18:33;;;;;;;;;;;31.10;32.80;;;;;;4987755;28;19930;-59
2021/06/02 13:21:10;;;;;;;;;;;31.00;33.20;;;;;;4989351;28;19936;-58
2021/06/02 13:23:37;;;;;;;;;;;30.40;32.70;;;;;;4988241;28;19933;-58
2021/06/02 13:26:07;;;;;;;;;;;30.60;33.20;;;;;;4981447;28;19965;-58
2021/06/02 13:28:42;;;;;;;;;;;30.70;33.30;;;;;;4987445;28;20313;-58
2021/06/02 13:31:09;;;;;;;;;;;30.70;33.20;;;;;;4986634;28;20582;-58
2021/06/02 13:33:37;;;;;;;;;;;30.70;33.40;;;;;;4986490;28;19925;-58
2021/06/02 13:36:05;;;;;;;;;;;30.50;33.10;;;;;;4987544;28;19926;-58
2021/06/02 13:38:31;;;;;;;;;;;30.90;33.10;;;;;;4990850;28;19926;-58
2021/06/02 13:40:58;;;;;;;;;;;31.30;33.60;;;;;;4986952;28;20096;-58
2021/06/02 13:43:24;;;;;;;;;;;31.20;32.60;;;;;;4984682;28;19932;-59
2021/06/02 13:45:56;;;;;;;;;;;31.10;33.60;;;;;;4986747;28;20397;-58
2021/06/02 13:48:34;;;;;;;;;;;31.20;33.20;;;;;;4984206;28;19972;-58
2021/06/02 13:51:31;;;;;;;;;;;31.60;32.50;;;;;;4984226;28;19926;-58
2021/06/02 13:54:03;;;;;;;;;;;31.90;32.20;;;;;;4926401;29;19927;-58
2021/06/02 13:56:30;;;;;;;;;;;31.60;31.50;;;;;;4925402;29;19927;-58
2021/06/02 13:59:04;;;;;;;;;;;31.40;32.20;;;;;;4924952;29;20272;-58
2021/06/02 14:01:30;;;;;;;;;;;31.10;32.00;;;;;;4926404;29;19927;-58
2021/06/02 14:03:59;;;;;;;;;;;31.00;32.60;;;;;;4927243;29;19934;-58
2021/06/02 14:06:27;;;;;;;;;;;31.60;32.30;;;;;;4939138;29;19962;-59
2021/06/02 14:08:53;;;;;;;;;;;31.70;33.00;;;;;;4926215;29;19926;-59
2021/06/02 14:11:24;;;;;;;;;;;32.10;31.80;;;;;;4927268;29;19946;-58
2021/06/02 14:13:52;;;;;;;;;;;32.10;32.50;;;;;;4945159;29;19970;-58
2021/06/02 14:16:21;;;;;;;;;;;32.30;31.00;;;;;;4945397;29;19983;-58
2021/06/02 14:18:58;;;;;;;;;;;32.20;31.10;;;;;;4945086;29;19926;-58
2021/06/02 14:21:32;;;;;;;;;;;32.00;31.40;;;;;;4947366;28;19926;-58
2021/06/02 14:24:05;;;;;;;;;;;32.00;31.90;;;;;;4945797;29;19965;-59
2021/06/02 14:26:34;;;;;;;;;;;31.90;32.00;;;;;;4945090;29;20316;-56
2021/06/02 14:29:02;;;;;;;;;;;31.70;31.50;;;;;;4944573;29;19926;-56
2021/06/02 14:31:28;;;;;;;;;;;31.40;32.20;;;;;;4982089;28;20024;-58
2021/06/02 14:33:55;;;;;;;;;;;30.90;32.40;;;;;;4986228;28;20028;-58
2021/06/02 14:36:24;;;;;;;;;;;31.40;33.00;;;;;;4989722;28;19932;-58
2021/06/02 14:38:50;;;;;;;;;;;31.20;32.20;;;;;;4988007;28;19926;-58
2021/06/02 14:41:21;;;;;;;;;;;31.00;31.60;;;;;;4974708;28;20403;-58
2021/06/02 14:43:47;;;;;;;;;;;30.60;32.40;;;;;;4988704;28;19925;-59
2021/06/02 14:46:18;;;;;;;;;;;30.10;33.30;;;;;;4989439;28;20015;-58
2021/06/02 14:48:47;;;;;;;;;;;29.90;33.20;;;;;;4986124;28;19933;-58
2021/06/02 14:51:15;;;;;;;;;;;29.60;34.70;;;;;;4982402;28;19922;-58
2021/06/02 14:53:42;;;;;;;;;;;29.40;35.40;;;;;;4989793;28;19969;-58
2021/06/02 14:56:10;;;;;;;;;;;29.30;34.60;;;;;;4988020;28;19929;-58
2021/06/02 14:58:44;;;;;;;;;;;29.20;35.40;;;;;;4988165;28;20557;-58
2021/06/02 15:01:10;;;;;;;;;;;29.30;34.70;;;;;;4989409;28;19958;-58
2021/06/02 15:03:36;;;;;;;;;;;29.30;35.40;;;;;;4990239;28;19926;-59
2021/06/02 15:06:03;;;;;;;;;;;29.30;35.00;;;;;;4989029;28;20076;-59
2021/06/02 15:08:30;;;;;;;;;;;29.30;36.20;;;;;;4987120;28;19935;-59
2021/06/02 15:10:59;;;;;;;;;;;29.50;35.40;;;;;;4989815;28;19980;-57
2021/06/02 15:13:25;;;;;;;;;;;29.20;35.60;;;;;;5005444;28;20412;-58
2021/06/02 15:15:52;;;;;;;;;;;29.30;36.40;;;;;;5006558;28;19925;-58
2021/06/02 15:18:21;;;;;;;;;;;29.30;35.20;;;;;;5008639;28;20401;-59
2021/06/02 15:20:49;;;;;;;;;;;29.30;36.70;;;;;;5006079;28;19929;-59
2021/06/02 15:23:16;;;;;;;;;;;29.30;36.40;;;;;;5007722;28;19932;-58
2021/06/02 15:25:44;;;;;;;;;;;29.30;35.50;;;;;;5005945;28;19961;-59
2021/06/02 15:28:11;;;;;;;;;;;29.50;37.40;;;;;;5014219;28;20010;-58
2021/06/02 15:30:37;;;;;;;;;;;29.40;37.60;;;;;;5005706;28;19935;-60
2021/06/02 15:33:13;;;;;;;;;;;29.50;36.30;;;;;;5008515;28;20015;-59
2021/06/02 15:35:39;;;;;;;;;;;29.20;36.50;;;;;;5007644;28;19933;-60
2021/06/02 15:38:07;;;;;;;;;;;29.00;36.40;;;;;;5013505;28;19926;-60
2021/06/02 15:40:35;;;;;;;;;;;28.90;37.30;;;;;;5007941;28;20208;-59
2021/06/02 15:43:01;;;;;;;;;;;28.80;36.50;;;;;;5007218;28;19939;-60
2021/06/02 15:45:28;;;;;;;;;;;28.60;37.10;;;;;;5007230;28;20449;-59
2021/06/02 15:47:58;;;;;;;;;;;28.40;37.10;;;;;;5006851;28;19976;-60
2021/06/02 15:50:30;;;;;;;;;;;28.20;38.00;;;;;;5014028;28;20412;-61
2021/06/02 15:52:59;;;;;;;;;;;28.00;37.80;;;;;;5003039;28;19937;-60
2021/06/02 15:55:26;;;;;;;;;;;27.80;39.20;;;;;;5006649;28;20334;-59
2021/06/02 15:57:53;;;;;;;;;;;27.80;38.80;;;;;;5003831;28;19955;-61
2021/06/02 16:00:21;;;;;;;;;;;27.70;38.80;;;;;;5003870;28;20366;-59
2021/06/02 16:02:49;;;;;;;;;;;27.60;39.10;;;;;;5007916;28;19936;-59
2021/06/02 16:05:19;;;;;;;;;;;27.60;39.10;;;;;;5008949;28;20012;-59
2021/06/02 16:07:49;;;;;;;;;;;27.70;39.60;;;;;;5006614;28;20059;-59
2021/06/02 16:10:23;;;;;;;;;;;27.70;40.60;;;;;;5006255;28;20354;-57
2021/06/02 16:12:59;;;;;;;;;;;27.90;40.20;;;;;;5002440;28;19932;-59
2021/06/02 16:15:29;;;;;;;;;;;27.80;40.10;;;;;;5004857;28;19926;-59
2021/06/02 16:18:01;;;;;;;;;;;27.90;41.30;;;;;;5009154;28;19926;-59
2021/06/02 16:20:30;;;;;;;;;;;27.90;40.60;;;;;;5009335;28;19925;-59